createdAt,value
2022-11-24T00:02:13.940Z,100.00
2022-11-24T00:04:17.285Z,100.00
2022-11-24T00:04:40.356Z,100.00
2022-11-24T00:07:06.828Z,100.00
2022-11-24T00:09:17.287Z,100.00
2022-11-24T00:09:33.191Z,100.00
2022-11-24T00:12:01.235Z,100.00
2022-11-24T00:14:17.307Z,100.00
2022-11-24T00:14:27.591Z,100.00
2022-11-24T00:16:54.006Z,100.00
2022-11-24T00:19:19.738Z,100.00
2022-11-24T00:19:20.448Z,100.00
2022-11-24T00:21:46.812Z,100.00
2022-11-24T00:24:13.189Z,100.00
2022-11-24T00:24:17.297Z,100.00
2022-11-24T00:26:39.572Z,100.00
2022-11-24T00:29:08.658Z,100.00
2022-11-24T00:29:17.283Z,100.00
2022-11-24T00:31:40.640Z,100.00
2022-11-24T00:34:11.338Z,100.00
2022-11-24T00:34:17.278Z,100.00
2022-11-24T00:36:39.113Z,100.00
2022-11-24T00:39:07.747Z,100.00
2022-11-24T00:39:17.303Z,100.00
2022-11-24T00:41:35.055Z,100.00
2022-11-24T00:44:01.460Z,100.00
2022-11-24T00:44:17.483Z,100.00
2022-11-24T00:46:28.434Z,100.00
2022-11-24T00:48:55.648Z,100.00
2022-11-24T00:49:17.296Z,100.00
2022-11-24T00:51:26.013Z,100.00
2022-11-24T00:53:53.190Z,100.00
2022-11-24T00:54:17.292Z,100.00
2022-11-24T00:56:19.940Z,100.00
2022-11-24T00:58:46.363Z,100.00
2022-11-24T00:59:17.280Z,100.00
2022-11-24T01:01:31.463Z,100.00
2022-11-24T01:04:01.295Z,100.00
2022-11-24T01:04:17.320Z,100.00
2022-11-24T01:06:29.586Z,100.00
2022-11-24T01:08:57.116Z,100.00
2022-11-24T01:09:17.302Z,100.00
2022-11-24T01:11:26.309Z,100.00
2022-11-24T01:13:58.044Z,100.00
2022-11-24T01:14:17.322Z,100.00
2022-11-24T01:16:34.662Z,100.00
2022-11-24T01:19:01.413Z,100.00
2022-11-24T01:19:17.288Z,100.00
2022-11-24T01:21:27.778Z,100.00
2022-11-24T01:23:54.084Z,100.00
2022-11-24T01:24:17.281Z,100.00
2022-11-24T01:26:22.311Z,100.00
2022-11-24T01:28:53.410Z,100.00
2022-11-24T01:29:17.302Z,100.00
2022-11-24T01:31:19.756Z,100.00
2022-11-24T01:33:46.118Z,100.00
2022-11-24T01:34:17.303Z,100.00
2022-11-24T01:36:12.907Z,100.00
2022-11-24T01:38:39.297Z,100.00
2022-11-24T01:39:17.302Z,100.00
2022-11-24T01:41:08.348Z,100.00
2022-11-24T01:43:34.824Z,100.00
2022-11-24T01:44:17.314Z,100.00
2022-11-24T01:46:11.696Z,100.00
2022-11-24T01:48:43.771Z,100.00
2022-11-24T01:49:17.327Z,100.00
2022-11-24T01:51:14.821Z,100.00
2022-11-24T01:53:45.577Z,100.00
2022-11-24T01:54:17.288Z,100.00
2022-11-24T01:56:13.438Z,100.00
2022-11-24T01:58:41.803Z,100.00
2022-11-24T01:59:17.341Z,100.00
2022-11-24T02:01:08.771Z,100.00
2022-11-24T02:03:39.775Z,100.00
2022-11-24T02:04:17.304Z,100.00
2022-11-24T02:06:13.051Z,100.00
2022-11-24T02:08:58.161Z,100.00
2022-11-24T02:09:17.318Z,100.00
2022-11-24T02:11:28.044Z,100.00
2022-11-24T02:13:55.254Z,100.00
2022-11-24T02:14:17.285Z,100.00
2022-11-24T02:16:21.889Z,100.00
2022-11-24T02:18:48.418Z,100.00
2022-11-24T02:19:17.306Z,100.00
2022-11-24T02:21:16.369Z,100.00
2022-11-24T02:24:02.007Z,100.00
2022-11-24T02:24:17.307Z,100.00
2022-11-24T02:26:41.588Z,100.00
2022-11-24T02:29:09.219Z,100.00
2022-11-24T02:29:17.288Z,100.00
2022-11-24T02:31:35.798Z,100.00
2022-11-24T02:34:02.205Z,100.00
2022-11-24T02:34:17.300Z,100.00
2022-11-24T02:36:28.608Z,100.00
2022-11-24T02:38:54.953Z,100.00
2022-11-24T02:39:17.302Z,100.00
2022-11-24T02:41:25.818Z,100.00
2022-11-24T02:43:59.016Z,100.00
2022-11-24T02:44:17.329Z,100.00
2022-11-24T02:46:25.885Z,100.00
2022-11-24T02:48:52.367Z,100.00
2022-11-24T02:49:17.323Z,100.00
2022-11-24T02:51:19.421Z,100.00
2022-11-24T02:53:45.873Z,100.00
2022-11-24T02:54:17.302Z,100.00
2022-11-24T02:56:12.738Z,100.00
2022-11-24T02:58:39.158Z,100.00
2022-11-24T02:59:17.329Z,100.00
2022-11-24T03:01:05.537Z,100.00
2022-11-24T03:03:32.030Z,100.00
2022-11-24T03:04:17.323Z,100.00
2022-11-24T03:05:58.435Z,100.00
2022-11-24T03:08:24.783Z,100.00
2022-11-24T03:09:17.319Z,100.00
2022-11-24T03:10:51.167Z,100.00
2022-11-24T03:13:17.540Z,100.00
2022-11-24T03:14:17.310Z,100.00
2022-11-24T03:15:43.999Z,100.00
2022-11-24T03:18:10.391Z,100.00
2022-11-24T03:19:17.314Z,100.00
2022-11-24T03:20:36.875Z,100.00
2022-11-24T03:23:03.287Z,100.00
2022-11-24T03:24:17.315Z,100.00
2022-11-24T03:25:29.600Z,100.00
2022-11-24T03:27:58.022Z,100.00
2022-11-24T03:29:17.300Z,100.00
2022-11-24T03:30:24.490Z,100.00
2022-11-24T03:32:54.124Z,100.00
2022-11-24T03:34:17.303Z,100.00
2022-11-24T03:35:21.613Z,100.00
2022-11-24T03:37:48.456Z,100.00
2022-11-24T03:39:17.312Z,100.00
2022-11-24T03:40:15.296Z,100.00
2022-11-24T03:42:41.635Z,100.00
2022-11-24T03:44:17.328Z,100.00
2022-11-24T03:47:54.876Z,100.00
2022-11-24T03:49:17.349Z,100.00
2022-11-24T03:50:21.229Z,100.00
2022-11-24T03:52:47.541Z,100.00
2022-11-24T03:54:17.318Z,100.00
2022-11-24T03:55:14.038Z,100.00
2022-11-24T03:57:40.371Z,100.00
2022-11-24T03:59:17.323Z,100.00
2022-11-24T04:00:07.399Z,100.00
2022-11-24T04:02:33.737Z,100.00
2022-11-24T04:04:17.308Z,100.00
2022-11-24T04:05:00.120Z,100.00
2022-11-24T04:07:26.451Z,100.00
2022-11-24T04:09:17.331Z,100.00
2022-11-24T04:09:53.080Z,100.00
2022-11-24T04:12:38.203Z,100.00
2022-11-24T04:14:17.329Z,100.00
2022-11-24T04:15:04.979Z,100.00
2022-11-24T04:17:31.316Z,100.00
2022-11-24T04:19:17.319Z,100.00
2022-11-24T04:19:57.617Z,100.00
2022-11-24T04:22:23.948Z,100.00
2022-11-24T04:24:17.323Z,100.00
2022-11-24T04:24:50.265Z,100.00
2022-11-24T04:27:16.601Z,100.00
2022-11-24T04:29:17.355Z,100.00
2022-11-24T04:29:42.937Z,100.00
2022-11-24T04:32:09.310Z,100.00
2022-11-24T04:34:17.356Z,100.00
2022-11-24T04:34:36.242Z,100.00
2022-11-24T04:37:02.723Z,100.00
2022-11-24T04:39:20.150Z,100.00
2022-11-24T04:39:29.076Z,100.00
2022-11-24T04:41:55.527Z,100.00
2022-11-24T04:44:17.529Z,100.00
2022-11-24T04:44:22.181Z,100.00
2022-11-24T04:46:48.537Z,100.00
2022-11-24T04:49:15.068Z,100.00
2022-11-24T04:49:17.319Z,100.00
2022-11-24T04:51:41.834Z,100.00
2022-11-24T04:54:11.006Z,100.00
2022-11-24T04:54:17.330Z,100.00
2022-11-24T04:56:37.475Z,100.00
2022-11-24T04:59:08.234Z,100.00
2022-11-24T04:59:17.338Z,100.00
2022-11-24T05:01:35.437Z,100.00
2022-11-24T05:04:01.869Z,100.00
2022-11-24T05:04:17.499Z,100.00
2022-11-24T05:06:28.280Z,100.00
2022-11-24T05:08:54.858Z,100.00
2022-11-24T05:09:17.317Z,100.00
2022-11-24T05:11:21.183Z,100.00
2022-11-24T05:13:47.543Z,100.00
2022-11-24T05:14:17.333Z,100.00
2022-11-24T05:16:13.955Z,100.00
2022-11-24T05:18:40.465Z,100.00
2022-11-24T05:19:17.343Z,100.00
2022-11-24T05:21:06.821Z,100.00
2022-11-24T05:23:33.170Z,100.00
2022-11-24T05:24:17.363Z,100.00
2022-11-24T05:26:03.806Z,100.00
2022-11-24T05:28:30.268Z,100.00
2022-11-24T05:29:17.326Z,100.00
2022-11-24T05:31:01.830Z,100.00
2022-11-24T05:33:29.975Z,100.00
2022-11-24T05:34:17.318Z,100.00
2022-11-24T05:36:01.278Z,100.00
2022-11-24T05:38:27.688Z,100.00
2022-11-24T05:39:17.357Z,100.00
2022-11-24T05:40:54.185Z,100.00
2022-11-24T05:43:20.637Z,100.00
2022-11-24T05:44:17.363Z,100.00
2022-11-24T05:45:47.054Z,100.00
2022-11-24T05:48:15.449Z,100.00
2022-11-24T05:49:17.357Z,100.00
2022-11-24T05:50:42.208Z,100.00
2022-11-24T05:53:10.833Z,100.00
2022-11-24T05:54:17.414Z,100.00
2022-11-24T05:55:38.313Z,100.00
2022-11-24T05:58:07.809Z,100.00
2022-11-24T05:59:17.360Z,100.00
2022-11-24T06:00:35.451Z,100.00
2022-11-24T06:03:02.230Z,100.00
2022-11-24T06:04:17.383Z,100.00
2022-11-24T06:05:29.440Z,100.00
2022-11-24T06:07:56.149Z,100.00
2022-11-24T06:09:17.357Z,100.00
2022-11-24T06:10:26.531Z,100.00
2022-11-24T06:12:53.311Z,100.00
2022-11-24T06:14:17.369Z,100.00
2022-11-24T06:15:19.875Z,100.00
2022-11-24T06:17:54.639Z,100.00
2022-11-24T06:19:17.344Z,100.00
2022-11-24T06:20:21.821Z,100.00
2022-11-24T06:22:48.366Z,100.00
2022-11-24T06:24:17.356Z,100.00
2022-11-24T06:25:16.161Z,100.00
2022-11-24T06:27:42.986Z,100.00
2022-11-24T06:29:17.334Z,100.00
2022-11-24T06:30:10.445Z,100.00
2022-11-24T06:32:36.901Z,100.00
2022-11-24T06:34:17.345Z,100.00
2022-11-24T06:35:03.473Z,100.00
2022-11-24T06:37:29.841Z,100.00
2022-11-24T06:39:17.344Z,100.00
2022-11-24T06:39:56.260Z,100.00
2022-11-24T06:42:22.561Z,100.00
2022-11-24T06:44:17.363Z,100.00
2022-11-24T06:44:48.951Z,100.00
2022-11-24T06:47:15.648Z,100.00
2022-11-24T06:49:17.374Z,100.00
2022-11-24T06:49:41.994Z,100.00
2022-11-24T06:52:08.431Z,100.00
2022-11-24T06:54:17.350Z,100.00
2022-11-24T06:54:34.958Z,100.00
2022-11-24T06:57:01.465Z,100.00
2022-11-24T06:59:17.348Z,100.00
2022-11-24T06:59:27.981Z,100.00
2022-11-24T07:01:54.318Z,100.00
2022-11-24T07:04:17.340Z,100.00
2022-11-24T07:04:20.791Z,100.00
2022-11-24T07:06:47.158Z,100.00
2022-11-24T07:09:14.440Z,100.00
2022-11-24T07:09:17.348Z,100.00
2022-11-24T07:11:41.313Z,100.00
2022-11-24T07:14:07.868Z,100.00
2022-11-24T07:14:17.374Z,100.00
2022-11-24T07:16:34.345Z,100.00
2022-11-24T07:19:01.109Z,100.00
2022-11-24T07:19:23.083Z,100.00
2022-11-24T07:21:29.417Z,100.00
2022-11-24T07:23:57.274Z,100.00
2022-11-24T07:24:17.426Z,100.00
2022-11-24T07:26:24.303Z,100.00
2022-11-24T07:28:51.016Z,100.00
2022-11-24T07:29:17.346Z,100.00
2022-11-24T07:31:20.235Z,100.00
2022-11-24T07:33:51.101Z,100.00
2022-11-24T07:34:17.367Z,100.00
2022-11-24T07:36:17.990Z,100.00
2022-11-24T07:38:44.492Z,100.00
2022-11-24T07:39:17.339Z,100.00
2022-11-24T07:41:12.666Z,100.00
2022-11-24T07:43:39.500Z,100.00
2022-11-24T07:44:17.373Z,100.00
2022-11-24T07:46:08.138Z,100.00
2022-11-24T07:48:34.936Z,100.00
2022-11-24T07:49:17.352Z,100.00
2022-11-24T07:51:02.931Z,100.00
2022-11-24T07:53:29.429Z,100.00
2022-11-24T07:54:17.375Z,100.00
2022-11-24T07:56:01.716Z,100.00
2022-11-24T07:58:32.631Z,100.00
2022-11-24T07:59:17.342Z,100.00
2022-11-24T08:00:59.853Z,100.00
2022-11-24T08:03:26.310Z,100.00
2022-11-24T08:04:17.357Z,100.00
2022-11-24T08:08:43.648Z,100.00
2022-11-24T08:09:17.351Z,100.00
2022-11-24T08:11:12.457Z,100.00
2022-11-24T08:13:39.320Z,100.00
2022-11-24T08:14:17.380Z,100.00
2022-11-24T08:16:15.048Z,100.00
2022-11-24T08:18:42.374Z,100.00
2022-11-24T08:19:17.416Z,100.00
2022-11-24T08:21:12.838Z,100.00
2022-11-24T08:23:39.358Z,100.00
2022-11-24T08:24:17.348Z,100.00
2022-11-24T08:26:08.891Z,100.00
2022-11-24T08:28:36.602Z,100.00
2022-11-24T08:29:17.358Z,100.00
2022-11-24T08:31:08.702Z,100.00
2022-11-24T08:33:35.560Z,100.00
2022-11-24T08:34:17.494Z,100.00
2022-11-24T08:36:28.514Z,100.00
2022-11-24T08:38:57.965Z,100.00
2022-11-24T08:39:17.388Z,100.00
2022-11-24T08:45:20.809Z,100.00
2022-11-24T08:59:13.446Z,100.00
2022-11-24T08:59:17.489Z,100.00
2022-11-24T09:01:40.041Z,100.00
2022-11-24T09:04:06.468Z,100.00
2022-11-24T09:04:17.417Z,100.00
2022-11-24T09:06:32.955Z,100.00
2022-11-24T09:08:59.743Z,100.00
2022-11-24T09:09:17.346Z,100.00
2022-11-24T09:11:27.292Z,100.00
2022-11-24T09:13:55.206Z,100.00
2022-11-24T09:14:17.374Z,100.00
2022-11-24T09:16:25.774Z,100.00
2022-11-24T09:19:00.689Z,100.00
2022-11-24T09:19:17.375Z,100.00
2022-11-24T09:21:27.581Z,100.00
2022-11-24T09:23:54.577Z,100.00
2022-11-24T09:24:17.365Z,100.00
2022-11-24T09:26:26.734Z,100.00
2022-11-24T09:28:54.557Z,100.00
2022-11-24T09:29:17.357Z,100.00
2022-11-24T09:31:24.342Z,100.00
2022-11-24T09:33:51.520Z,100.00
2022-11-24T09:34:17.384Z,100.00
2022-11-24T09:36:19.094Z,100.00
2022-11-24T09:38:45.781Z,100.00
2022-11-24T09:39:17.393Z,100.00
2022-11-24T09:41:18.304Z,100.00
2022-11-24T09:44:08.483Z,100.00
2022-11-24T09:44:17.377Z,100.00
2022-11-24T09:47:05.901Z,100.00
2022-11-24T09:49:17.373Z,100.00
2022-11-24T09:49:55.943Z,100.00
2022-11-24T09:52:42.525Z,100.00
2022-11-24T09:54:17.380Z,100.00
2022-11-24T09:55:25.012Z,100.00
2022-11-24T09:58:03.140Z,100.00
2022-11-24T09:59:17.395Z,100.00
2022-11-24T10:00:30.080Z,100.00
2022-11-24T10:02:57.490Z,100.00
2022-11-24T10:04:17.442Z,100.00
2022-11-24T10:05:29.120Z,100.00
2022-11-24T10:08:09.791Z,100.00
2022-11-24T10:09:17.352Z,100.00
2022-11-24T10:11:03.458Z,100.00
2022-11-24T10:13:46.580Z,100.00
2022-11-24T10:14:17.379Z,100.00
2022-11-24T10:16:40.996Z,100.00
2022-11-24T10:19:40.364Z,100.00
2022-11-24T10:19:41.191Z,100.00
2022-11-24T10:22:31.216Z,100.00
2022-11-24T10:24:17.340Z,100.00
2022-11-24T10:25:16.332Z,100.00
2022-11-24T10:27:54.457Z,100.00
2022-11-24T10:29:17.372Z,100.00
2022-11-24T10:30:23.783Z,100.00
2022-11-24T10:32:59.398Z,99.61
2022-11-24T10:34:17.387Z,99.61
2022-11-24T10:35:34.931Z,98.68
2022-11-24T10:38:26.939Z,98.92
2022-11-24T10:39:17.360Z,98.92
2022-11-24T10:41:11.794Z,98.79
2022-11-24T10:43:41.275Z,98.00
2022-11-24T10:44:17.382Z,98.00
2022-11-24T10:46:26.236Z,97.67
2022-11-24T10:49:02.220Z,97.52
2022-11-24T10:49:17.383Z,97.52
2022-11-24T10:51:31.382Z,97.07
2022-11-24T10:54:25.648Z,96.57
2022-11-24T10:54:25.810Z,96.57
2022-11-24T10:56:53.770Z,96.72
2022-11-24T10:59:17.351Z,96.72
2022-11-24T10:59:24.173Z,96.88
2022-11-24T11:01:53.807Z,95.93
2022-11-24T11:04:17.365Z,95.93
2022-11-24T11:04:28.102Z,95.93
2022-11-24T11:07:08.849Z,95.37
2022-11-24T11:09:17.368Z,95.37
2022-11-24T11:09:35.328Z,94.00
2022-11-24T11:12:36.214Z,92.73
2022-11-24T11:14:17.392Z,92.73
2022-11-24T11:15:15.927Z,92.54
2022-11-24T11:17:44.422Z,92.05
2022-11-24T11:19:47.258Z,92.05
2022-11-24T11:20:22.059Z,92.01
2022-11-24T11:22:50.264Z,90.90
2022-11-24T11:24:17.362Z,90.90
2022-11-24T11:25:32.348Z,90.93
2022-11-24T11:28:31.355Z,89.29
2022-11-24T11:31:21.083Z,89.22
2022-11-24T11:34:05.384Z,88.69
2022-11-24T11:34:25.062Z,88.69
2022-11-24T11:37:01.620Z,90.13
2022-11-24T11:39:17.384Z,90.13
2022-11-24T11:39:46.927Z,88.47
2022-11-24T11:43:01.396Z,87.57
2022-11-24T11:44:17.359Z,87.57
2022-11-24T11:45:35.900Z,87.07
2022-11-24T11:48:02.814Z,86.75
2022-11-24T11:49:17.515Z,86.75
2022-11-24T11:51:22.825Z,87.71
2022-11-24T11:54:00.597Z,86.54
2022-11-24T11:54:17.370Z,86.54
2022-11-24T11:56:34.742Z,86.55
2022-11-24T11:59:16.583Z,85.60
2022-11-24T11:59:17.459Z,85.60
2022-11-24T12:01:48.882Z,85.18
2022-11-24T12:04:33.665Z,84.25
2022-11-24T12:04:34.134Z,84.25
2022-11-24T12:07:19.276Z,85.24
2022-11-24T12:09:21.341Z,85.24
2022-11-24T12:09:52.875Z,84.51
2022-11-24T12:12:41.092Z,84.61
2022-11-24T12:14:17.386Z,84.61
2022-11-24T12:15:25.221Z,84.40
2022-11-24T12:17:58.294Z,84.03
2022-11-24T12:19:17.382Z,84.03
2022-11-24T12:20:42.861Z,84.76
2022-11-24T12:23:38.054Z,84.96
2022-11-24T12:24:17.490Z,84.96
2022-11-24T12:26:24.643Z,84.70
2022-11-24T12:29:14.366Z,85.26
2022-11-24T12:29:17.361Z,85.26
2022-11-24T12:32:28.233Z,85.24
2022-11-24T12:34:17.369Z,85.24
2022-11-24T12:35:06.892Z,84.63
2022-11-24T12:38:11.791Z,84.65
2022-11-24T12:39:17.380Z,84.65
2022-11-24T12:41:18.313Z,84.12
2022-11-24T12:43:52.250Z,83.88
2022-11-24T12:44:17.398Z,83.88
2022-11-24T12:46:38.379Z,84.48
2022-11-24T12:49:27.172Z,83.77
2022-11-24T12:49:27.300Z,83.77
2022-11-24T12:52:00.378Z,85.49
2022-11-24T12:54:17.377Z,85.49
2022-11-24T12:54:38.821Z,85.08
2022-11-24T12:57:17.993Z,84.81
2022-11-24T12:59:17.417Z,84.81
2022-11-24T13:00:07.145Z,85.48
2022-11-24T13:03:09.471Z,85.02
2022-11-24T13:04:17.369Z,85.02
2022-11-24T13:05:47.952Z,86.09
2022-11-24T13:08:15.629Z,85.88
2022-11-24T13:09:17.378Z,85.88
2022-11-24T13:10:58.117Z,86.54
2022-11-24T13:13:29.703Z,87.23
2022-11-24T13:14:17.367Z,87.23
2022-11-24T13:18:52.506Z,87.98
2022-11-24T13:19:17.390Z,87.98
2022-11-24T13:21:30.913Z,88.50
2022-11-24T13:23:59.084Z,88.52
2022-11-24T13:24:18.274Z,88.52
2022-11-24T13:26:50.399Z,87.46
2022-11-24T13:29:32.093Z,87.14
2022-11-24T13:29:32.249Z,87.14
2022-11-24T13:32:04.720Z,87.86
2022-11-24T13:34:17.374Z,87.86
2022-11-24T13:34:43.264Z,87.64
2022-11-24T13:37:26.517Z,87.96
2022-11-24T13:39:17.397Z,87.96
2022-11-24T13:40:13.617Z,88.94
2022-11-24T13:42:57.981Z,89.01
2022-11-24T13:44:17.391Z,89.01
2022-11-24T13:45:40.085Z,88.63
2022-11-24T13:48:18.983Z,89.35
2022-11-24T13:49:17.477Z,89.35
2022-11-24T13:50:51.965Z,90.10
2022-11-24T13:53:47.477Z,90.72
2022-11-24T13:54:17.411Z,90.72
2022-11-24T13:56:14.018Z,91.93
2022-11-24T13:58:41.851Z,92.47
2022-11-24T13:59:17.369Z,92.47
2022-11-24T14:01:24.880Z,92.12
2022-11-24T14:04:32.827Z,90.62
2022-11-24T14:04:33.675Z,90.62
2022-11-24T14:07:08.432Z,90.31
2022-11-24T14:09:17.384Z,90.31
2022-11-24T14:09:43.461Z,90.45
2022-11-24T14:12:21.026Z,89.68
2022-11-24T14:14:19.417Z,89.68
2022-11-24T14:14:49.740Z,90.16
2022-11-24T14:17:19.789Z,91.35
2022-11-24T14:19:17.392Z,91.35
2022-11-24T14:19:48.533Z,92.27
2022-11-24T14:22:19.558Z,94.16
2022-11-24T14:24:17.363Z,94.16
2022-11-24T14:24:52.469Z,95.15
2022-11-24T14:27:23.832Z,96.05
2022-11-24T14:29:17.393Z,96.05
2022-11-24T14:29:55.228Z,97.39
2022-11-24T14:32:22.112Z,98.07
2022-11-24T14:34:17.375Z,98.07
2022-11-24T14:34:48.699Z,98.27
2022-11-24T14:37:15.132Z,98.70
2022-11-24T14:39:17.462Z,98.70
2022-11-24T14:39:42.788Z,99.23
2022-11-24T14:42:27.457Z,98.52
2022-11-24T14:44:17.394Z,98.52
2022-11-24T14:44:58.530Z,99.44
2022-11-24T14:47:32.222Z,99.58
2022-11-24T14:49:17.364Z,99.58
2022-11-24T14:50:19.209Z,99.31
2022-11-24T14:52:53.359Z,99.53
2022-11-24T14:54:17.393Z,99.53
2022-11-24T14:55:28.394Z,100.00
2022-11-24T14:57:55.453Z,100.00
2022-11-24T14:59:17.366Z,100.00
2022-11-24T15:00:24.631Z,100.00
2022-11-24T15:02:55.510Z,100.00
2022-11-24T15:04:26.995Z,100.00
2022-11-24T15:05:24.933Z,100.00
2022-11-24T15:08:02.262Z,100.00
2022-11-24T15:09:17.367Z,100.00
2022-11-24T15:10:33.873Z,100.00
2022-11-24T15:13:03.110Z,100.00
2022-11-24T15:14:17.403Z,100.00
2022-11-24T15:15:36.399Z,100.00
2022-11-24T15:18:05.023Z,100.00
2022-11-24T15:19:17.367Z,100.00
2022-11-24T15:20:37.735Z,100.00
2022-11-24T15:23:13.302Z,100.00
2022-11-24T15:24:17.374Z,23
2022-11-24T15:25:39.737Z,100.00
2022-11-24T15:28:09.722Z,100.00
2022-11-24T15:29:17.369Z,100.00
2022-11-24T15:30:36.952Z,100.00
2022-11-24T15:33:12.196Z,100.00
2022-11-24T15:34:17.397Z,100.00
2022-11-24T15:35:38.846Z,100.00
2022-11-24T15:38:05.163Z,100.00
2022-11-24T15:39:17.431Z,100.00
2022-11-24T15:40:31.578Z,100.00
2022-11-24T15:43:02.039Z,100.00
2022-11-24T15:44:17.416Z,100.00
2022-11-24T15:45:33.965Z,100.00
2022-11-24T15:48:00.334Z,100.00
2022-11-24T15:49:17.386Z,100.00
2022-11-24T15:50:26.682Z,100.00
2022-11-24T15:52:53.007Z,100.00
2022-11-24T15:54:17.373Z,100.00
2022-11-24T15:55:21.828Z,100.00
2022-11-24T15:57:48.924Z,100.00
2022-11-24T15:59:20.667Z,100.00
2022-11-24T16:00:21.078Z,100.00
2022-11-24T16:02:47.669Z,100.00
2022-11-24T16:04:17.594Z,100.00
2022-11-24T16:05:15.124Z,100.00
2022-11-24T16:07:41.963Z,100.00
2022-11-24T16:09:17.385Z,100.00
2022-11-24T16:10:21.555Z,100.00
2022-11-24T16:12:47.949Z,100.00
2022-11-24T16:14:17.379Z,100.00
2022-11-24T16:15:14.609Z,100.00
2022-11-24T16:17:40.934Z,100.00
2022-11-24T16:19:17.397Z,100.00
2022-11-24T16:20:07.674Z,100.00
2022-11-24T16:22:34.050Z,100.00
2022-11-24T16:24:17.375Z,100.00
2022-11-24T16:25:00.403Z,100.00
2022-11-24T16:27:26.727Z,100.00
2022-11-24T16:29:17.428Z,100.00
2022-11-24T16:29:53.103Z,100.00
2022-11-24T16:32:19.491Z,100.00
2022-11-24T16:34:17.369Z,100.00
2022-11-24T16:34:45.852Z,100.00
2022-11-24T16:37:12.185Z,100.00
2022-11-24T16:39:17.415Z,100.00
2022-11-24T16:39:38.513Z,100.00
2022-11-24T16:42:04.945Z,100.00
2022-11-24T16:44:17.421Z,100.00
2022-11-24T16:44:31.283Z,100.00
2022-11-24T16:46:57.588Z,100.00
2022-11-24T16:49:17.403Z,100.00
2022-11-24T16:49:23.947Z,100.00
2022-11-24T16:51:50.253Z,100.00
2022-11-24T16:54:16.869Z,100.00
2022-11-24T16:54:17.414Z,100.00
2022-11-24T16:56:43.321Z,100.00
2022-11-24T16:59:09.965Z,100.00
2022-11-24T16:59:17.389Z,100.00
2022-11-24T17:01:37.145Z,100.00
2022-11-24T17:04:07.003Z,100.00
2022-11-24T17:04:17.384Z,100.00
2022-11-24T17:06:35.950Z,100.00
2022-11-24T17:09:02.255Z,100.00
2022-11-24T17:09:17.369Z,100.00
2022-11-24T17:11:29.109Z,100.00
2022-11-24T17:13:58.750Z,100.00
2022-11-24T17:14:17.401Z,100.00
2022-11-24T17:16:26.429Z,100.00
2022-11-24T17:18:53.185Z,100.00
2022-11-24T17:19:17.396Z,100.00
2022-11-24T17:21:21.675Z,100.00
2022-11-24T17:23:52.506Z,100.00
2022-11-24T17:24:17.383Z,100.00
2022-11-24T17:26:18.915Z,100.00
2022-11-24T17:28:45.435Z,100.00
2022-11-24T17:29:17.387Z,100.00
2022-11-24T17:31:29.772Z,100.00
2022-11-24T17:33:57.511Z,100.00
2022-11-24T17:34:17.365Z,100.00
2022-11-24T17:36:24.771Z,100.00
2022-11-24T17:38:51.764Z,100.00
2022-11-24T17:39:23.220Z,100.00
2022-11-24T17:41:18.989Z,100.00
2022-11-24T17:43:56.516Z,100.00
2022-11-24T17:44:17.404Z,100.00
2022-11-24T17:46:27.838Z,100.00
2022-11-24T17:48:54.729Z,100.00
2022-11-24T17:49:17.461Z,100.00
2022-11-24T17:51:23.591Z,100.00
2022-11-24T17:53:52.077Z,100.00
2022-11-24T17:54:45.506Z,100.00
2022-11-24T17:56:24.099Z,100.00
2022-11-24T17:58:54.192Z,100.00
2022-11-24T17:59:17.392Z,100.00
2022-11-24T18:01:21.320Z,100.00
2022-11-24T18:03:52.030Z,100.00
2022-11-24T18:04:17.386Z,100.00
2022-11-24T18:06:19.938Z,100.00
2022-11-24T18:08:47.189Z,100.00
2022-11-24T18:09:17.385Z,100.00
2022-11-24T18:11:16.673Z,100.00
2022-11-24T18:14:01.144Z,100.00
2022-11-24T18:14:17.406Z,100.00
2022-11-24T18:16:30.190Z,100.00
2022-11-24T18:19:14.615Z,100.00
2022-11-24T18:19:17.372Z,100.00
2022-11-24T18:21:42.126Z,100.00
2022-11-24T18:24:10.145Z,100.00
2022-11-24T18:24:21.118Z,100.00
2022-11-24T18:26:36.843Z,100.00
2022-11-24T18:29:03.583Z,100.00
2022-11-24T18:29:17.382Z,100.00
2022-11-24T18:31:31.092Z,100.00
2022-11-24T18:33:57.623Z,100.00
2022-11-24T18:34:17.401Z,100.00
2022-11-24T18:36:30.058Z,100.00
2022-11-24T18:38:56.837Z,100.00
2022-11-24T18:39:17.410Z,100.00
2022-11-24T18:41:23.225Z,100.00
2022-11-24T18:43:49.590Z,100.00
2022-11-24T18:44:17.396Z,100.00
2022-11-24T18:46:17.698Z,100.00
2022-11-24T18:48:44.974Z,100.00
2022-11-24T18:49:17.465Z,100.00
2022-11-24T18:51:14.854Z,100.00
2022-11-24T18:53:43.187Z,100.00
2022-11-24T18:54:17.424Z,100.00
2022-11-24T18:56:12.823Z,100.00
2022-11-24T18:58:39.203Z,100.00
2022-11-24T18:59:17.568Z,100.00
2022-11-24T19:01:18.912Z,100.00
2022-11-24T19:03:50.874Z,100.00
2022-11-24T19:04:17.379Z,100.00
2022-11-24T19:06:19.913Z,100.00
2022-11-24T19:08:47.182Z,100.00
2022-11-24T19:09:17.404Z,100.00
2022-11-24T19:11:23.103Z,100.00
2022-11-24T19:13:49.992Z,100.00
2022-11-24T19:14:17.417Z,100.00
2022-11-24T19:16:21.403Z,100.00
2022-11-24T19:18:54.115Z,100.00
2022-11-24T19:19:17.535Z,100.00
2022-11-24T19:21:21.726Z,100.00
2022-11-24T19:23:48.146Z,100.00
2022-11-24T19:24:17.398Z,100.00
2022-11-24T19:26:14.854Z,100.00
2022-11-24T19:28:41.212Z,100.00
2022-11-24T19:29:17.391Z,100.00
2022-11-24T19:31:11.817Z,100.00
2022-11-24T19:33:39.009Z,100.00
2022-11-24T19:34:17.393Z,100.00
2022-11-24T19:36:14.371Z,100.00
2022-11-24T19:38:41.909Z,100.00
2022-11-24T19:39:17.371Z,100.00
2022-11-24T19:41:11.365Z,100.00
2022-11-24T19:43:38.414Z,100.00
2022-11-24T19:44:17.386Z,100.00
2022-11-24T19:46:07.742Z,100.00
2022-11-24T19:48:36.451Z,100.00
2022-11-24T19:49:17.481Z,100.00
2022-11-24T19:51:05.246Z,100.00
2022-11-24T19:53:32.475Z,100.00
2022-11-24T19:54:17.571Z,100.00
2022-11-24T19:56:06.204Z,100.00
2022-11-24T19:58:32.850Z,100.00
2022-11-24T19:59:17.387Z,100.00
2022-11-24T20:01:07.326Z,100.00
2022-11-24T20:03:34.428Z,100.00
2022-11-24T20:04:17.361Z,100.00
2022-11-24T20:06:00.842Z,100.00
2022-11-24T20:08:31.858Z,100.00
2022-11-24T20:09:17.378Z,100.00
2022-11-24T20:11:13.237Z,100.00
2022-11-24T20:13:41.539Z,100.00
2022-11-24T20:14:17.391Z,100.00
2022-11-24T20:16:14.554Z,100.00
2022-11-24T20:18:44.643Z,100.00
2022-11-24T20:19:17.383Z,100.00
2022-11-24T20:21:22.844Z,100.00
2022-11-24T20:24:01.008Z,100.00
2022-11-24T20:24:17.417Z,100.00
2022-11-24T20:26:31.000Z,100.00
2022-11-24T20:28:58.992Z,100.00
2022-11-24T20:29:17.384Z,100.00
2022-11-24T20:31:31.108Z,100.00
2022-11-24T20:33:57.709Z,100.00
2022-11-24T20:34:17.378Z,100.00
2022-11-24T20:36:26.984Z,100.00
2022-11-24T20:38:53.864Z,100.00
2022-11-24T20:39:17.401Z,100.00
2022-11-24T20:41:22.992Z,100.00
2022-11-24T20:43:50.873Z,100.00
2022-11-24T20:44:17.406Z,100.00
2022-11-24T20:46:23.691Z,100.00
2022-11-24T20:48:50.652Z,100.00
2022-11-24T20:49:17.429Z,100.00
2022-11-24T20:51:22.874Z,100.00
2022-11-24T20:53:50.611Z,100.00
2022-11-24T20:54:17.631Z,100.00
2022-11-24T20:56:20.190Z,100.00
2022-11-24T20:58:46.784Z,100.00
2022-11-24T20:59:17.391Z,100.00
2022-11-24T21:01:16.458Z,100.00
2022-11-24T21:03:44.106Z,100.00
2022-11-24T21:04:17.382Z,100.00
2022-11-24T21:06:12.622Z,100.00
2022-11-24T21:08:41.666Z,100.00
2022-11-24T21:09:17.388Z,100.00
2022-11-24T21:11:11.483Z,100.00
2022-11-24T21:13:40.254Z,100.00
2022-11-24T21:14:17.392Z,100.00
2022-11-24T21:16:22.030Z,100.00
2022-11-24T21:18:51.751Z,100.00
2022-11-24T21:19:17.506Z,100.00
2022-11-24T21:21:19.881Z,100.00
2022-11-24T21:23:46.955Z,100.00
2022-11-24T21:24:17.395Z,100.00
2022-11-24T21:26:16.923Z,100.00
2022-11-24T21:28:45.193Z,100.00